createdAt,value
2018-09-14T00:00:52.251Z,15.90
2018-09-14T00:03:20.771Z,15.90
2018-09-14T00:05:49.502Z,15.70
2018-09-14T00:08:18.391Z,15.80
2018-09-14T00:10:46.846Z,15.80
2018-09-14T00:13:15.363Z,16.00
2018-09-14T00:15:43.851Z,16.00
2018-09-14T00:18:12.353Z,16.00
2018-09-14T00:20:40.819Z,15.80
2018-09-14T00:23:09.584Z,15.80
2018-09-14T00:25:38.055Z,15.80
2018-09-14T00:28:06.869Z,15.90
2018-09-14T00:30:35.382Z,15.90
2018-09-14T00:33:03.912Z,16.10
2018-09-14T00:35:32.627Z,16.10
2018-09-14T00:38:01.131Z,16.10
2018-09-14T00:40:29.562Z,16.10
2018-09-14T00:42:58.003Z,16.20
2018-09-14T00:45:26.583Z,16.40
2018-09-14T00:47:55.027Z,16.30
2018-09-14T00:50:23.494Z,16.30
2018-09-14T00:52:51.937Z,16.20
2018-09-14T00:55:21.196Z,16.00
2018-09-14T00:57:49.635Z,15.90
2018-09-14T01:00:18.114Z,15.90
2018-09-14T01:02:46.563Z,16.00
2018-09-14T01:05:15.339Z,15.90
2018-09-14T01:07:43.800Z,15.70
2018-09-14T01:10:12.278Z,15.80
2018-09-14T01:12:47.902Z,15.80
2018-09-14T01:15:16.386Z,15.70
2018-09-14T01:17:44.826Z,15.60
2018-09-14T01:20:13.340Z,15.40
2018-09-14T01:22:42.090Z,15.50
2018-09-14T01:25:10.887Z,15.40
2018-09-14T01:27:40.153Z,15.40
2018-09-14T01:30:08.943Z,15.40
2018-09-14T01:32:37.435Z,15.40
2018-09-14T01:35:14.102Z,15.50
2018-09-14T01:37:42.618Z,15.60
2018-09-14T01:40:11.143Z,15.50
2018-09-14T01:42:39.646Z,15.50
2018-09-14T01:45:08.278Z,15.40
2018-09-14T01:47:36.881Z,15.50
2018-09-14T01:50:05.985Z,15.50
2018-09-14T01:52:34.513Z,15.30
2018-09-14T01:55:03.105Z,15.50
2018-09-14T01:57:31.578Z,15.50
2018-09-14T02:00:00.127Z,15.40
2018-09-14T02:02:28.649Z,15.30
2018-09-14T02:04:57.127Z,15.30
2018-09-14T02:07:25.637Z,15.40
2018-09-14T02:09:54.133Z,15.30
2018-09-14T02:12:22.723Z,15.20
2018-09-14T02:14:51.227Z,15.20
2018-09-14T02:17:19.768Z,15.20
2018-09-14T02:19:48.229Z,15.10
2018-09-14T02:22:16.990Z,15.20
2018-09-14T02:24:45.435Z,15.30
2018-09-14T02:27:13.947Z,15.40
2018-09-14T02:29:42.451Z,15.30
2018-09-14T02:32:10.933Z,15.20
2018-09-14T02:34:39.489Z,15.30
2018-09-14T02:37:08.013Z,15.10
2018-09-14T02:39:36.500Z,15.20
2018-09-14T02:42:05.096Z,15.20
2018-09-14T02:44:33.588Z,14.90
2018-09-14T02:47:02.130Z,15.10
2018-09-14T02:49:30.917Z,15.10
2018-09-14T02:51:59.426Z,15.10
2018-09-14T02:54:28.052Z,15.10
2018-09-14T02:56:56.558Z,15.20
2018-09-14T02:59:25.113Z,15.20
2018-09-14T03:01:53.985Z,15.10
2018-09-14T03:04:22.711Z,15.20
2018-09-14T03:06:51.207Z,15.10
2018-09-14T03:09:19.756Z,15.20
2018-09-14T03:11:48.301Z,15.20
2018-09-14T03:14:16.814Z,15.20
2018-09-14T03:16:45.362Z,14.90
2018-09-14T03:19:13.911Z,14.90
2018-09-14T03:21:42.420Z,14.90
2018-09-14T03:24:10.958Z,14.90
2018-09-14T03:26:39.450Z,14.90
2018-09-14T03:29:07.958Z,14.90
2018-09-14T03:31:36.567Z,14.70
2018-09-14T03:34:05.071Z,15.00
2018-09-14T03:36:33.585Z,14.90
2018-09-14T03:39:02.082Z,15.00
2018-09-14T03:41:30.605Z,15.00
2018-09-14T03:43:59.071Z,14.90
2018-09-14T03:46:27.601Z,15.00
2018-09-14T03:48:56.092Z,14.80
2018-09-14T03:51:24.612Z,14.80
2018-09-14T03:53:53.156Z,14.70
2018-09-14T03:56:21.622Z,14.70
2018-09-14T03:58:50.238Z,14.90
2018-09-14T04:01:18.810Z,14.90
2018-09-14T04:03:47.480Z,15.00
2018-09-14T04:06:15.999Z,15.10
2018-09-14T04:08:44.492Z,15.00
2018-09-14T04:11:13.023Z,15.10
2018-09-14T04:13:41.509Z,15.10
2018-09-14T04:16:10.026Z,15.20
2018-09-14T04:18:38.516Z,15.00
2018-09-14T04:21:07.066Z,15.00
2018-09-14T04:23:35.554Z,15.00
2018-09-14T04:26:04.065Z,15.00
2018-09-14T04:28:32.927Z,14.80
2018-09-14T04:31:01.535Z,14.80
2018-09-14T04:33:30.027Z,14.90
2018-09-14T04:35:58.539Z,14.90
2018-09-14T04:38:27.052Z,14.90
2018-09-14T04:40:55.574Z,14.80
2018-09-14T04:43:24.059Z,14.90
2018-09-14T04:45:52.563Z,14.60
2018-09-14T04:48:21.119Z,14.60
2018-09-14T04:50:49.627Z,14.60
2018-09-14T04:53:18.111Z,14.70
2018-09-14T04:55:46.620Z,14.90
2018-09-14T04:58:15.130Z,14.80
2018-09-14T05:00:43.654Z,14.60
2018-09-14T05:03:12.179Z,14.80
2018-09-14T05:05:40.617Z,14.80
2018-09-14T05:08:09.135Z,14.90
2018-09-14T05:10:37.619Z,14.70
2018-09-14T05:13:06.159Z,14.80
2018-09-14T05:15:34.642Z,14.60
2018-09-14T05:18:04.309Z,14.60
2018-09-14T05:20:33.167Z,14.70
2018-09-14T05:23:01.886Z,14.70
2018-09-14T05:25:30.850Z,14.80
2018-09-14T05:27:59.314Z,14.70
2018-09-14T05:30:27.878Z,14.70
2018-09-14T05:32:56.388Z,14.70
2018-09-14T05:35:25.158Z,14.80
2018-09-14T05:37:53.635Z,14.60
2018-09-14T05:40:22.116Z,14.50
2018-09-14T05:42:50.566Z,14.50
2018-09-14T05:45:19.349Z,14.60
2018-09-14T05:47:47.820Z,14.70
2018-09-14T05:50:16.351Z,14.40
2018-09-14T05:52:44.828Z,14.50
2018-09-14T05:55:13.270Z,14.60
2018-09-14T05:57:41.764Z,14.60
2018-09-14T06:00:10.312Z,14.60
2018-09-14T06:02:39.112Z,14.70
2018-09-14T06:05:07.683Z,14.80
2018-09-14T06:07:36.443Z,14.80
2018-09-14T06:10:05.887Z,14.70
2018-09-14T06:12:34.363Z,14.50
2018-09-14T06:15:02.843Z,14.60
2018-09-14T06:17:31.320Z,14.70
2018-09-14T06:19:59.767Z,15.00
2018-09-14T06:22:28.290Z,15.10
2018-09-14T06:24:56.695Z,15.20
2018-09-14T06:27:25.171Z,15.20
2018-09-14T06:29:53.675Z,15.00
2018-09-14T06:32:22.135Z,15.10
2018-09-14T06:34:50.650Z,15.20
2018-09-14T06:37:19.176Z,15.00
2018-09-14T06:39:47.689Z,15.20
2018-09-14T06:42:16.287Z,15.10
2018-09-14T06:44:44.821Z,14.90
2018-09-14T06:47:13.360Z,15.00
2018-09-14T06:49:41.876Z,15.00
2018-09-14T06:52:10.426Z,15.10
2018-09-14T06:54:39.002Z,15.00
2018-09-14T06:57:07.484Z,15.10
2018-09-14T06:59:36.315Z,15.10
2018-09-14T07:02:04.852Z,15.10
2018-09-14T07:04:33.383Z,15.20
2018-09-14T07:07:01.883Z,15.30
2018-09-14T07:09:30.403Z,15.50
2018-09-14T07:11:58.898Z,15.60
2018-09-14T07:14:27.427Z,15.70
2018-09-14T07:16:55.935Z,15.90
2018-09-14T07:19:24.462Z,16.00
2018-09-14T07:21:53.007Z,16.40
2018-09-14T07:24:21.951Z,16.60
2018-09-14T07:26:50.487Z,16.40
2018-09-14T07:29:19.172Z,16.50
2018-09-14T07:31:47.805Z,16.50
2018-09-14T07:34:16.204Z,16.30
2018-09-14T07:36:44.817Z,16.40
2018-09-14T07:39:13.599Z,16.40
2018-09-14T07:41:42.606Z,16.20
2018-09-14T07:44:11.082Z,16.40
2018-09-14T07:46:39.649Z,16.40
2018-09-14T07:49:08.135Z,16.50
2018-09-14T07:51:36.635Z,16.80
2018-09-14T07:54:05.155Z,16.90
2018-09-14T07:56:33.746Z,17.00
2018-09-14T07:59:02.239Z,16.70
2018-09-14T08:01:30.752Z,16.70
2018-09-14T08:03:59.275Z,16.80
2018-09-14T08:06:27.754Z,17.10
2018-09-14T08:08:56.256Z,16.80
2018-09-14T08:11:24.758Z,16.80
2018-09-14T08:13:53.325Z,17.00
2018-09-14T08:16:21.803Z,17.10
2018-09-14T08:18:50.319Z,16.90
2018-09-14T08:21:18.874Z,16.80
2018-09-14T08:23:47.350Z,16.90
2018-09-14T08:26:16.114Z,17.00
2018-09-14T08:28:44.639Z,17.00
2018-09-14T08:31:13.157Z,17.20
2018-09-14T08:33:41.976Z,17.50
2018-09-14T08:36:10.460Z,17.30
2018-09-14T08:38:39.041Z,17.50
2018-09-14T08:41:07.540Z,17.50
2018-09-14T08:43:36.297Z,17.60
2018-09-14T08:46:04.914Z,17.70
2018-09-14T08:48:33.492Z,17.60
2018-09-14T08:51:02.264Z,17.70
2018-09-14T08:53:30.781Z,17.90
2018-09-14T08:55:59.275Z,18.40
2018-09-14T08:58:28.102Z,18.70
2018-09-14T09:00:56.659Z,18.70
2018-09-14T09:03:25.165Z,18.60
2018-09-14T09:05:53.665Z,18.80
2018-09-14T09:08:22.134Z,19.20
2018-09-14T09:10:50.682Z,19.50
2018-09-14T09:13:19.169Z,19.30
2018-09-14T09:15:47.696Z,19.10
2018-09-14T09:18:16.161Z,19.20
2018-09-14T09:20:44.700Z,19.60
2018-09-14T09:23:13.226Z,19.90
2018-09-14T09:25:42.048Z,19.80
2018-09-14T09:28:10.566Z,19.70
2018-09-14T09:30:39.058Z,19.90
2018-09-14T09:33:07.631Z,20.00
2018-09-14T09:35:36.140Z,20.00
2018-09-14T09:38:04.682Z,19.90
2018-09-14T09:40:33.133Z,20.00
2018-09-14T09:43:01.720Z,20.20
2018-09-14T09:45:30.171Z,20.70
2018-09-14T09:47:58.720Z,20.70
2018-09-14T09:50:27.219Z,20.60
2018-09-14T09:52:55.679Z,21.00
2018-09-14T09:55:24.186Z,21.30
2018-09-14T09:57:52.698Z,21.70
2018-09-14T10:00:26.496Z,21.80
2018-09-14T10:03:00.258Z,20.80
2018-09-14T10:05:34.212Z,21.10
2018-09-14T10:08:02.714Z,21.50
2018-09-14T10:13:35.459Z,21.90
2018-09-14T10:16:03.950Z,22.20
2018-09-14T10:18:32.424Z,22.00
2018-09-14T10:21:00.973Z,22.50
2018-09-14T10:23:29.457Z,22.60
2018-09-14T10:25:58.230Z,22.60
2018-09-14T10:28:26.955Z,22.50
2018-09-14T10:30:55.425Z,22.20
2018-09-14T10:33:23.935Z,22.60
2018-09-14T10:35:52.395Z,22.80
2018-09-14T10:38:20.869Z,23.10
2018-09-14T10:40:49.579Z,22.40
2018-09-14T10:43:18.124Z,22.40
2018-09-14T10:45:46.984Z,22.60
2018-09-14T10:48:15.525Z,23.00
2018-09-14T10:50:43.978Z,23.10
2018-09-14T10:53:12.431Z,23.20
2018-09-14T10:55:41.287Z,22.80
2018-09-14T10:58:10.007Z,22.70
2018-09-14T11:00:38.825Z,22.20
2018-09-14T11:03:07.281Z,22.40
2018-09-14T11:05:35.764Z,22.80
2018-09-14T11:08:04.571Z,23.00
2018-09-14T11:10:33.037Z,23.30
2018-09-14T11:13:01.897Z,23.30
2018-09-14T11:15:31.503Z,23.30
2018-09-14T11:17:59.991Z,23.00
2018-09-14T11:20:28.939Z,22.90
2018-09-14T11:22:57.408Z,23.20
2018-09-14T11:25:26.262Z,23.20
2018-09-14T11:27:54.794Z,23.00
2018-09-14T11:30:23.581Z,22.90
2018-09-14T11:32:52.026Z,22.90
2018-09-14T11:35:20.503Z,23.10
2018-09-14T11:37:49.065Z,23.70
2018-09-14T11:40:17.786Z,23.60
2018-09-14T11:42:46.685Z,23.90
2018-09-14T11:45:15.820Z,24.10
2018-09-14T11:47:44.300Z,24.20
2018-09-14T11:50:13.116Z,24.10
2018-09-14T11:52:41.947Z,24.00
2018-09-14T11:55:10.686Z,24.20
2018-09-14T11:57:39.119Z,24.40
2018-09-14T12:00:07.618Z,24.40
2018-09-14T12:02:36.387Z,24.30
2018-09-14T12:05:04.829Z,24.20
2018-09-14T12:07:36.920Z,24.20
2018-09-14T12:10:05.728Z,24.00
2018-09-14T12:12:34.827Z,23.90
2018-09-14T12:15:03.320Z,23.90
2018-09-14T12:17:32.271Z,23.80
2018-09-14T12:20:01.069Z,23.40
2018-09-14T12:22:29.835Z,23.60
2018-09-14T12:24:58.368Z,23.60
2018-09-14T12:27:26.899Z,23.50
2018-09-14T12:29:55.616Z,23.40
2018-09-14T12:32:24.155Z,23.10
2018-09-14T12:34:52.627Z,23.10
2018-09-14T12:37:21.067Z,23.10
2018-09-14T12:39:50.401Z,23.20
2018-09-14T12:42:18.855Z,23.20
2018-09-14T12:44:47.348Z,23.20
2018-09-14T12:47:15.873Z,23.20
2018-09-14T12:49:44.363Z,23.30
2018-09-14T12:52:12.856Z,23.20
2018-09-14T12:54:41.404Z,23.10
2018-09-14T12:57:09.900Z,23.20
2018-09-14T12:59:38.359Z,23.10
2018-09-14T13:02:06.933Z,23.30
2018-09-14T13:04:35.452Z,23.20
2018-09-14T13:07:04.320Z,23.30
2018-09-14T13:09:32.784Z,23.30
2018-09-14T13:12:01.241Z,22.80
2018-09-14T13:14:29.785Z,22.80
2018-09-14T13:17:00.860Z,22.80
2018-09-14T13:19:30.398Z,22.90
2018-09-14T13:21:58.864Z,23.00
2018-09-14T13:24:27.326Z,23.30
2018-09-14T13:26:55.795Z,23.30
2018-09-14T13:29:24.579Z,22.80
2018-09-14T13:31:53.080Z,23.00
2018-09-14T13:34:21.571Z,23.30
2018-09-14T13:36:50.050Z,23.40
2018-09-14T13:39:18.530Z,23.40
2018-09-14T13:41:47.008Z,23.40
2018-09-14T13:44:15.459Z,23.40
2018-09-14T13:46:44.005Z,23.40
2018-09-14T13:49:12.463Z,23.30
2018-09-14T13:51:40.939Z,22.80
2018-09-14T13:54:09.387Z,22.90
2018-09-14T13:56:37.883Z,23.20
2018-09-14T13:59:06.421Z,23.30
2018-09-14T14:01:34.909Z,23.70
2018-09-14T14:04:03.400Z,23.80
2018-09-14T14:06:31.874Z,23.80
2018-09-14T14:09:00.331Z,24.20
2018-09-14T14:11:28.802Z,24.40
2018-09-14T14:13:57.244Z,24.70
2018-09-14T14:16:25.806Z,24.90
2018-09-14T14:18:54.220Z,24.90
2018-09-14T14:21:22.710Z,24.90
2018-09-14T14:23:51.145Z,24.80
2018-09-14T14:26:19.671Z,24.90
2018-09-14T14:28:48.410Z,24.90
2018-09-14T14:31:16.895Z,24.60
2018-09-14T14:33:45.397Z,24.60
2018-09-14T14:36:13.838Z,25.00
2018-09-14T14:38:42.543Z,25.20
2018-09-14T14:41:11.053Z,24.70
2018-09-14T14:43:39.431Z,24.00
2018-09-14T14:46:07.935Z,23.80
2018-09-14T14:48:36.636Z,23.30
2018-09-14T14:51:05.338Z,23.20
2018-09-14T14:53:33.834Z,23.60
2018-09-14T14:56:02.402Z,23.80
2018-09-14T14:58:31.014Z,23.90
2018-09-14T15:00:59.491Z,24.00
2018-09-14T15:03:28.175Z,24.00
2018-09-14T15:05:56.647Z,23.90
2018-09-14T15:08:25.435Z,23.90
2018-09-14T15:10:54.143Z,24.00
2018-09-14T15:13:22.599Z,24.00
2018-09-14T15:15:51.056Z,23.80
2018-09-14T15:18:20.006Z,23.60
2018-09-14T15:20:48.466Z,23.40
2018-09-14T15:23:17.276Z,23.30
2018-09-14T15:25:46.007Z,23.30
2018-09-14T15:28:14.475Z,23.50
2018-09-14T15:30:43.506Z,23.50
2018-09-14T15:33:11.986Z,23.60
2018-09-14T15:35:40.463Z,23.70
2018-09-14T15:38:08.960Z,23.40
2018-09-14T15:40:37.474Z,23.40
2018-09-14T15:43:05.927Z,23.30
2018-09-14T15:45:34.391Z,23.20
2018-09-14T15:48:02.839Z,22.80
2018-09-14T15:50:31.313Z,22.30
2018-09-14T15:52:59.757Z,22.30
2018-09-14T15:55:28.679Z,22.10
2018-09-14T15:57:57.157Z,22.10
2018-09-14T16:00:25.651Z,22.10
2018-09-14T16:02:54.787Z,21.90
2018-09-14T16:05:23.249Z,22.00
2018-09-14T16:07:51.717Z,22.20
2018-09-14T16:10:20.175Z,22.40
2018-09-14T16:12:48.674Z,22.40
2018-09-14T16:15:17.197Z,22.50
2018-09-14T16:17:45.797Z,22.40
2018-09-14T16:20:14.240Z,22.10
2018-09-14T16:22:42.896Z,21.90
2018-09-14T16:25:11.455Z,21.90
2018-09-14T16:27:40.011Z,22.00
2018-09-14T16:30:08.479Z,21.90
2018-09-14T16:32:36.955Z,21.50
2018-09-14T16:35:05.510Z,21.50
2018-09-14T16:37:34.323Z,21.50
2018-09-14T16:40:02.845Z,21.30
2018-09-14T16:42:31.334Z,21.10
2018-09-14T16:44:59.817Z,21.20
2018-09-14T16:47:28.296Z,21.10
2018-09-14T16:49:56.756Z,21.10
2018-09-14T16:52:25.306Z,21.10
2018-09-14T16:54:54.057Z,21.30
2018-09-14T16:57:22.735Z,21.40
2018-09-14T16:59:51.218Z,21.40
2018-09-14T17:02:19.714Z,21.20
2018-09-14T17:04:48.158Z,21.30
2018-09-14T17:07:16.634Z,21.40
2018-09-14T17:09:45.070Z,21.40
2018-09-14T17:12:13.547Z,21.10
2018-09-14T17:14:42.091Z,21.00
2018-09-14T17:17:10.579Z,20.80
2018-09-14T17:19:39.059Z,20.70
2018-09-14T17:22:07.630Z,20.80
2018-09-14T17:24:36.105Z,21.10
2018-09-14T17:27:04.601Z,21.00
2018-09-14T17:29:33.075Z,20.90
2018-09-14T17:32:01.521Z,20.70
2018-09-14T17:34:29.968Z,20.60
2018-09-14T17:36:58.735Z,20.80
2018-09-14T17:39:27.508Z,20.90
2018-09-14T17:41:56.234Z,20.80
2018-09-14T17:44:24.718Z,20.60
2018-09-14T17:46:53.443Z,20.60
2018-09-14T17:49:21.928Z,20.50
2018-09-14T17:51:50.714Z,20.30
2018-09-14T17:54:19.510Z,20.10
2018-09-14T17:56:48.044Z,20.10
2018-09-14T17:59:16.540Z,20.40
2018-09-14T18:01:45.078Z,20.40
2018-09-14T18:04:13.498Z,20.20
2018-09-14T18:06:42.256Z,20.10
2018-09-14T18:09:12.175Z,20.10
2018-09-14T18:11:41.187Z,20.00
2018-09-14T18:14:10.047Z,19.80
2018-09-14T18:16:38.520Z,19.70
2018-09-14T18:19:07.016Z,19.60
2018-09-14T18:21:35.502Z,19.50
2018-09-14T18:24:03.954Z,19.40
2018-09-14T18:26:32.406Z,19.50
2018-09-14T18:29:00.930Z,19.40
2018-09-14T18:31:29.399Z,19.40
2018-09-14T18:33:58.119Z,19.20
2018-09-14T18:36:26.559Z,19.10
2018-09-14T18:38:55.283Z,19.10
2018-09-14T18:41:24.062Z,19.20
2018-09-14T18:43:52.540Z,19.10
2018-09-14T18:46:21.038Z,19.20
2018-09-14T18:48:49.554Z,19.30
2018-09-14T18:51:18.055Z,19.30
2018-09-14T18:53:46.815Z,19.60
2018-09-14T18:56:15.255Z,19.80
2018-09-14T18:58:43.743Z,19.80
2018-09-14T19:01:12.246Z,19.60
2018-09-14T19:03:40.779Z,19.50
2018-09-14T19:06:09.282Z,19.40
2018-09-14T19:08:38.565Z,19.20
2018-09-14T19:11:07.088Z,19.20
2018-09-14T19:13:35.545Z,19.10
2018-09-14T19:16:04.374Z,19.10
2018-09-14T19:18:32.847Z,19.10
2018-09-14T19:21:01.363Z,19.10
2018-09-14T19:23:30.150Z,19.10
2018-09-14T19:25:58.652Z,19.10
2018-09-14T19:28:27.124Z,19.20
2018-09-14T19:30:55.615Z,19.40
2018-09-14T19:33:24.367Z,19.60
2018-09-14T19:35:53.891Z,19.80
2018-09-14T19:38:23.223Z,19.40
2018-09-14T19:40:51.679Z,19.30
2018-09-14T19:43:20.971Z,19.20
2018-09-14T19:45:49.478Z,19.00
2018-09-14T19:48:18.387Z,19.10
2018-09-14T19:50:47.704Z,19.10
2018-09-14T19:53:16.204Z,19.00
2018-09-14T19:55:44.674Z,18.90
2018-09-14T19:58:13.965Z,18.80
2018-09-14T20:00:42.479Z,18.80
2018-09-14T20:03:11.243Z,18.80
2018-09-14T20:05:39.703Z,18.80
2018-09-14T20:08:08.195Z,18.80
2018-09-14T20:10:36.986Z,18.70
2018-09-14T20:13:05.453Z,18.60
2018-09-14T20:15:33.911Z,18.50
2018-09-14T20:18:02.563Z,18.50
2018-09-14T20:20:31.016Z,18.50
2018-09-14T20:22:59.487Z,18.50
2018-09-14T20:25:27.948Z,18.80
2018-09-14T20:27:56.484Z,19.10
2018-09-14T20:30:24.998Z,19.00
2018-09-14T20:32:53.468Z,18.80
2018-09-14T20:35:22.139Z,18.60
2018-09-14T20:37:50.952Z,18.50
2018-09-14T20:40:19.735Z,18.40
2018-09-14T20:42:48.226Z,18.80
2018-09-14T20:45:16.696Z,19.00
2018-09-14T20:47:45.180Z,18.80
2018-09-14T20:50:13.700Z,18.60
2018-09-14T20:52:42.189Z,18.60
2018-09-14T20:55:10.638Z,18.70
2018-09-14T20:57:39.116Z,18.60
2018-09-14T21:00:07.787Z,18.40
2018-09-14T21:02:36.280Z,18.10
2018-09-14T21:05:04.859Z,17.90
2018-09-14T21:07:33.615Z,17.90
2018-09-14T21:10:02.404Z,17.80
2018-09-14T21:12:30.976Z,17.60
2018-09-14T21:14:59.443Z,17.50
2018-09-14T21:17:27.951Z,17.50
2018-09-14T21:19:56.399Z,17.60
2018-09-14T21:22:24.880Z,17.60
2018-09-14T21:24:53.342Z,17.70
2018-09-14T21:27:21.834Z,17.60
2018-09-14T21:29:50.331Z,17.40
2018-09-14T21:32:18.814Z,17.40
2018-09-14T21:34:47.289Z,17.40
2018-09-14T21:37:15.782Z,17.40
2018-09-14T21:39:44.496Z,17.40
2018-09-14T21:42:12.985Z,17.60
2018-09-14T21:44:41.401Z,17.50
2018-09-14T21:47:12.182Z,17.60
2018-09-14T21:49:40.759Z,17.60
2018-09-14T21:52:09.232Z,17.60
2018-09-14T21:54:37.711Z,17.60
2018-09-14T21:57:06.136Z,17.50
2018-09-14T21:59:34.616Z,17.40
2018-09-14T22:02:03.073Z,17.50
2018-09-14T22:04:31.552Z,17.50
2018-09-14T22:06:59.998Z,17.50
2018-09-14T22:09:28.463Z,17.50
2018-09-14T22:11:56.915Z,17.40
2018-09-14T22:14:25.384Z,17.40
2018-09-14T22:16:54.117Z,17.40
2018-09-14T22:19:22.597Z,17.30
2018-09-14T22:21:57.477Z,17.30
2018-09-14T22:24:26.721Z,17.30
2018-09-14T22:26:55.182Z,17.30
2018-09-14T22:29:23.731Z,17.40
2018-09-14T22:31:52.422Z,17.40
2018-09-14T22:34:20.939Z,17.40
2018-09-14T22:36:49.358Z,17.40
2018-09-14T22:39:17.866Z,17.30
2018-09-14T22:41:46.304Z,17.30
2018-09-14T22:44:14.774Z,17.30
2018-09-14T22:46:43.211Z,17.30
2018-09-14T22:49:11.716Z,17.30
2018-09-14T22:51:40.267Z,17.30
2018-09-14T22:54:08.722Z,17.30
2018-09-14T22:56:37.164Z,17.20
2018-09-14T22:59:05.938Z,17.20
2018-09-14T23:01:34.750Z,17.10
2018-09-14T23:04:03.220Z,17.00
2018-09-14T23:06:31.770Z,17.10
2018-09-14T23:09:00.248Z,17.00
2018-09-14T23:11:28.739Z,16.70
2018-09-14T23:13:57.177Z,16.80
2018-09-14T23:16:25.650Z,16.60
2018-09-14T23:18:54.119Z,16.60
2018-09-14T23:21:22.672Z,16.60
2018-09-14T23:23:51.109Z,16.70
2018-09-14T23:26:21.959Z,16.50
2018-09-14T23:28:50.416Z,16.60
2018-09-14T23:31:18.873Z,16.60
2018-09-14T23:33:47.558Z,16.50
2018-09-14T23:36:16.018Z,16.50
2018-09-14T23:38:44.477Z,16.50
2018-09-14T23:41:12.930Z,16.50
2018-09-14T23:43:41.355Z,16.40
2018-09-14T23:46:10.171Z,16.40
2018-09-14T23:48:38.616Z,16.50
2018-09-14T23:51:07.377Z,16.40
2018-09-14T23:53:35.909Z,16.30
2018-09-14T23:56:04.702Z,16.20
2018-09-14T23:58:33.184Z,16.20
